Time;durP1;ratioP1;P1;durP2;ratioP2;P2;SDS_P1;SDS_P2;PMS_P1;PMS_P2;Temp;Humidity;BMP_temperature;BMP_pressure;BME280_temperature;BME280_humidity;BME280_pressure;Samples;Min_cycle;Max_cycle;Signal;HPM_P1;HPM_P2
2023/11/17 00:04:27;;;;;;;3.13;2.50;;;11.10;42.50;;;;;;10281518;28;20228;-76
2023/11/17 00:09:30;;;;;;;2.60;2.40;;;11.10;42.60;;;;;;10272596;28;20232;-76
2023/11/17 00:14:34;;;;;;;2.50;2.30;;;11.10;42.40;;;;;;10276825;28;20238;-76
2023/11/17 00:19:38;;;;;;;2.50;2.20;;;11.10;42.60;;;;;;10274570;28;20323;-75
2023/11/17 00:24:43;;;;;;;2.70;2.50;;;11.10;42.70;;;;;;10278017;28;20244;-76
2023/11/17 00:29:48;;;;;;;2.60;2.40;;;11.00;42.50;;;;;;10277056;28;20303;-76
2023/11/17 00:34:53;;;;;;;2.47;2.37;;;11.00;42.40;;;;;;10272219;28;20230;-76
2023/11/17 00:39:59;;;;;;;2.00;1.90;;;11.00;43.00;;;;;;10282630;28;20235;-76
2023/11/17 00:45:03;;;;;;;1.60;1.50;;;10.90;42.80;;;;;;10282187;28;20228;-76
2023/11/17 00:50:11;;;;;;;1.53;1.43;;;10.80;42.90;;;;;;10283555;28;20235;-76
2023/11/17 00:55:15;;;;;;;1.83;1.70;;;10.60;43.20;;;;;;10289197;28;20366;-75
2023/11/17 01:00:19;;;;;;;2.33;1.57;;;10.50;43.30;;;;;;10284670;28;20246;-76
2023/11/17 01:05:24;;;;;;;2.13;1.70;;;10.40;43.30;;;;;;10281943;28;20235;-76
2023/11/17 01:10:28;;;;;;;1.57;1.47;;;10.30;43.80;;;;;;10283179;28;20236;-76
2023/11/17 01:15:34;;;;;;;1.40;1.30;;;10.20;43.70;;;;;;10284021;28;20232;-76
2023/11/17 01:20:40;;;;;;;1.00;1.00;;;10.10;43.40;;;;;;10287424;28;20250;-76
2023/11/17 01:25:44;;;;;;;0.90;0.90;;;10.00;43.60;;;;;;10282024;28;20607;-76
2023/11/17 01:30:47;;;;;;;1.07;0.97;;;10.00;43.50;;;;;;10285616;28;20281;-76
2023/11/17 01:35:52;;;;;;;0.63;0.63;;;9.90;44.30;;;;;;10287219;28;20216;-76
2023/11/17 01:40:57;;;;;;;0.83;0.83;;;9.90;44.30;;;;;;10285320;28;20227;-76
2023/11/17 01:46:00;;;;;;;0.77;0.77;;;9.90;44.00;;;;;;10284748;28;20235;-76
2023/11/17 01:51:07;;;;;;;0.77;0.77;;;9.80;44.20;;;;;;10285314;28;20234;-76
2023/11/17 01:56:11;;;;;;;0.83;0.80;;;9.70;44.40;;;;;;10282309;28;20277;-77
2023/11/17 02:01:14;;;;;;;0.80;0.80;;;9.70;44.50;;;;;;10284915;28;20234;-76
2023/11/17 02:06:26;;;;;;;0.90;0.80;;;9.60;44.70;;;;;;10283114;28;20230;-76
2023/11/17 02:11:37;;;;;;;0.83;0.83;;;9.60;46.20;;;;;;10278856;28;20307;-76
2023/11/17 02:16:43;;;;;;;0.80;0.80;;;9.50;45.40;;;;;;10281804;28;20232;-77
2023/11/17 02:21:49;;;;;;;0.70;0.70;;;9.50;45.20;;;;;;10276698;28;20232;-76
2023/11/17 02:27:08;;;;;;;1.33;0.60;;;9.40;44.90;;;;;;10279092;28;20271;-76
2023/11/17 02:32:16;;;;;;;0.60;0.60;;;9.40;45.20;;;;;;10279126;28;20322;-76
2023/11/17 02:37:24;;;;;;;2.27;0.57;;;9.30;44.90;;;;;;10281021;28;20231;-76
2023/11/17 02:42:28;;;;;;;0.73;0.60;;;9.20;44.90;;;;;;10280544;28;20282;-76
2023/11/17 02:47:35;;;;;;;0.47;0.47;;;9.10;45.00;;;;;;10278527;28;20235;-76
2023/11/17 02:52:48;;;;;;;1.60;0.50;;;9.00;45.30;;;;;;10273301;28;20282;-77
2023/11/17 02:57:54;;;;;;;1.27;0.70;;;8.90;45.50;;;;;;10280720;28;20722;-76
2023/11/17 03:02:59;;;;;;;0.70;0.70;;;8.90;45.40;;;;;;10275143;28;20256;-76
2023/11/17 03:08:02;;;;;;;0.50;0.50;;;8.80;45.80;;;;;;10278789;28;20223;-76
2023/11/17 03:13:06;;;;;;;0.60;0.60;;;8.80;45.60;;;;;;10278744;28;20234;-76
2023/11/17 03:18:12;;;;;;;0.63;0.60;;;8.80;45.80;;;;;;10282264;28;20231;-76
2023/11/17 03:23:16;;;;;;;0.50;0.50;;;8.80;45.80;;;;;;10281073;28;20227;-76
2023/11/17 03:28:19;;;;;;;0.60;0.60;;;8.70;45.80;;;;;;10279632;28;20733;-76
2023/11/17 03:33:24;;;;;;;0.60;0.60;;;8.70;45.80;;;;;;10279071;28;20681;-76
2023/11/17 03:38:27;;;;;;;0.60;0.60;;;8.70;46.20;;;;;;10279005;28;20250;-76
2023/11/17 03:43:30;;;;;;;0.70;0.70;;;8.60;45.70;;;;;;10277004;28;20228;-76
2023/11/17 03:48:35;;;;;;;0.60;0.60;;;8.60;45.70;;;;;;10279488;28;20231;-76
2023/11/17 03:53:38;;;;;;;0.60;0.60;;;8.60;45.90;;;;;;10275002;28;20775;-76
2023/11/17 03:58:41;;;;;;;0.67;0.67;;;8.60;45.80;;;;;;10278856;28;20224;-76
2023/11/17 04:03:46;;;;;;;0.93;0.80;;;8.50;45.90;;;;;;10273219;28;20230;-76
2023/11/17 04:08:50;;;;;;;0.70;0.70;;;8.60;46.30;;;;;;10280247;28;20225;-76
2023/11/17 04:13:53;;;;;;;0.70;0.70;;;8.50;46.00;;;;;;10277048;28;20228;-76
2023/11/17 04:18:57;;;;;;;0.97;0.90;;;8.50;45.90;;;;;;10282115;28;20219;-76
2023/11/17 04:24:01;;;;;;;0.80;0.80;;;8.50;46.30;;;;;;10279569;28;20623;-76
2023/11/17 04:29:05;;;;;;;0.70;0.70;;;8.50;45.80;;;;;;10279746;28;20314;-76
2023/11/17 04:34:11;;;;;;;0.50;0.50;;;8.60;45.70;;;;;;10275093;28;20228;-76
2023/11/17 04:39:18;;;;;;;1.60;0.63;;;8.60;45.80;;;;;;10284400;28;20642;-76
2023/11/17 04:44:21;;;;;;;0.63;0.63;;;8.60;45.70;;;;;;10274514;28;20294;-76
2023/11/17 04:49:27;;;;;;;0.80;0.80;;;8.70;45.80;;;;;;10304235;28;20347;-75
2023/11/17 04:54:30;;;;;;;0.97;0.80;;;8.70;45.70;;;;;;10312012;28;20744;-75
2023/11/17 04:59:33;;;;;;;0.93;0.90;;;8.70;45.30;;;;;;10305218;28;20295;-76
2023/11/17 05:04:38;;;;;;;2.50;2.30;;;8.70;45.40;;;;;;10305070;28;20243;-75
2023/11/17 05:09:42;;;;;;;1.80;1.70;;;8.70;45.50;;;;;;10302761;28;20298;-75
2023/11/17 05:14:46;;;;;;;0.80;0.80;;;8.70;45.50;;;;;;10305574;28;20234;-75
2023/11/17 05:19:52;;;;;;;1.33;0.80;;;8.80;45.50;;;;;;10303758;28;20258;-75
2023/11/17 05:24:55;;;;;;;1.00;0.90;;;8.80;45.80;;;;;;10305665;28;20282;-76
2023/11/17 05:29:58;;;;;;;0.77;0.77;;;8.90;45.50;;;;;;10294907;28;20238;-76
2023/11/17 05:35:05;;;;;;;1.50;1.40;;;8.90;45.30;;;;;;10320599;28;20223;-76
2023/11/17 05:40:09;;;;;;;1.03;1.03;;;8.90;45.60;;;;;;10307318;28;20247;-77
2023/11/17 05:45:14;;;;;;;1.20;1.10;;;9.00;45.30;;;;;;10292318;28;20307;-78
2023/11/17 05:50:20;;;;;;;1.40;1.30;;;9.00;45.30;;;;;;10283603;28;20236;-78
2023/11/17 05:55:23;;;;;;;2.17;2.00;;;9.00;45.30;;;;;;10275739;28;20315;-76
2023/11/17 06:00:27;;;;;;;1.10;1.10;;;9.00;45.10;;;;;;10271582;28;20756;-76
2023/11/17 06:05:32;;;;;;;1.43;1.33;;;9.00;45.00;;;;;;10273534;28;20335;-76
2023/11/17 06:10:36;;;;;;;2.03;1.23;;;9.00;45.20;;;;;;10270580;28;20227;-76
2023/11/17 06:15:39;;;;;;;1.47;1.37;;;9.00;45.00;;;;;;10262168;28;20230;-76
2023/11/17 06:20:44;;;;;;;1.67;1.57;;;9.00;45.20;;;;;;10251997;28;20241;-76
2023/11/17 06:25:48;;;;;;;1.70;1.47;;;9.00;45.60;;;;;;10252490;28;20236;-76
2023/11/17 06:30:51;;;;;;;1.67;1.57;;;9.00;45.40;;;;;;10275245;28;20240;-77
2023/11/17 06:35:58;;;;;;;1.80;1.70;;;9.00;45.20;;;;;;10271633;28;20243;-77
2023/11/17 06:41:01;;;;;;;1.93;1.83;;;9.10;45.50;;;;;;10270246;28;20310;-77
2023/11/17 06:46:07;;;;;;;2.00;1.90;;;9.10;45.20;;;;;;10272180;28;21661;-77
2023/11/17 06:51:14;;;;;;;1.93;1.83;;;9.20;45.30;;;;;;10280509;28;20929;-77
2023/11/17 06:56:17;;;;;;;2.50;2.30;;;9.20;45.60;;;;;;10271354;28;20228;-77
2023/11/17 07:01:20;;;;;;;2.30;2.20;;;9.20;45.40;;;;;;10274639;28;20634;-77
2023/11/17 07:06:27;;;;;;;2.50;2.30;;;9.20;45.30;;;;;;10275506;28;20605;-77
2023/11/17 07:11:32;;;;;;;2.50;2.30;;;9.20;45.50;;;;;;10253693;28;20232;-77
2023/11/17 07:16:35;;;;;;;2.07;1.97;;;9.30;45.40;;;;;;10265391;28;20228;-77
2023/11/17 07:21:50;;;;;;;2.47;2.27;;;9.20;45.40;;;;;;10267760;28;20260;-77
2023/11/17 07:26:55;;;;;;;2.33;2.13;;;9.30;45.60;;;;;;10268410;28;20220;-77
2023/11/17 07:32:04;;;;;;;2.10;2.00;;;9.30;45.40;;;;;;10274751;28;20235;-77
2023/11/17 07:37:08;;;;;;;1.90;1.80;;;9.30;45.40;;;;;;10270969;28;20241;-77
2023/11/17 07:42:12;;;;;;;2.20;2.10;;;9.40;45.80;;;;;;10274390;28;20259;-77
2023/11/17 07:47:16;;;;;;;1.90;1.80;;;9.40;45.50;;;;;;10289083;28;20625;-77
2023/11/17 07:52:23;;;;;;;1.90;1.80;;;9.40;45.50;;;;;;10290181;28;20245;-77
2023/11/17 07:57:26;;;;;;;2.70;2.50;;;9.40;45.80;;;;;;10272702;28;20233;-77
2023/11/17 08:02:30;;;;;;;2.00;1.90;;;9.40;45.40;;;;;;10276181;28;20239;-77
2023/11/17 08:07:35;;;;;;;2.63;2.43;;;9.50;45.60;;;;;;10274469;28;20274;-77
2023/11/17 08:12:39;;;;;;;1.90;1.73;;;9.50;45.80;;;;;;10269008;28;20233;-76
2023/11/17 08:17:42;;;;;;;1.80;1.70;;;9.50;45.70;;;;;;10270929;28;20231;-77
2023/11/17 08:22:47;;;;;;;1.63;1.53;;;9.50;45.60;;;;;;10277266;28;20228;-77
2023/11/17 08:27:50;;;;;;;1.80;1.70;;;9.50;45.90;;;;;;10274600;28;21016;-77
2023/11/17 08:32:53;;;;;;;1.70;1.60;;;9.50;45.80;;;;;;10273023;28;20735;-77
2023/11/17 08:37:58;;;;;;;2.20;2.00;;;9.60;45.90;;;;;;10269584;28;20231;-76
2023/11/17 08:43:03;;;;;;;2.20;1.80;;;9.60;45.90;;;;;;10277703;28;20234;-76
2023/11/17 08:48:07;;;;;;;2.10;1.90;;;9.70;45.70;;;;;;10274121;28;20227;-76
2023/11/17 08:53:11;;;;;;;1.97;1.87;;;9.70;45.60;;;;;;10270070;28;20500;-76
2023/11/17 08:58:14;;;;;;;1.93;1.83;;;9.70;45.80;;;;;;10276117;28;20311;-77
2023/11/17 09:03:18;;;;;;;2.00;1.70;;;9.60;45.60;;;;;;10276945;28;20321;-76
2023/11/17 09:08:22;;;;;;;2.93;1.50;;;9.70;45.80;;;;;;10278820;28;20260;-75
2023/11/17 09:13:28;;;;;;;1.83;1.60;;;9.70;46.00;;;;;;10278258;28;20613;-75
2023/11/17 09:18:32;;;;;;;2.07;1.43;;;9.70;45.70;;;;;;10274486;28;20254;-77
2023/11/17 09:23:36;;;;;;;1.90;1.80;;;9.80;45.80;;;;;;10274106;28;20286;-76
2023/11/17 09:28:39;;;;;;;2.43;1.70;;;9.80;45.90;;;;;;10279421;28;20229;-77
2023/11/17 09:33:43;;;;;;;1.93;1.83;;;9.80;45.80;;;;;;10275858;28;20661;-77
2023/11/17 09:38:48;;;;;;;2.63;2.00;;;9.80;46.10;;;;;;10278052;28;20681;-77
2023/11/17 09:43:57;;;;;;;2.40;2.20;;;9.80;46.20;;;;;;10270808;28;20882;-77
2023/11/17 09:49:04;;;;;;;2.40;2.20;;;9.80;46.80;;;;;;10257787;28;20227;-77
2023/11/17 09:54:13;;;;;;;2.37;2.17;;;9.90;46.10;;;;;;10273280;28;20604;-77
2023/11/17 09:59:17;;;;;;;2.47;2.27;;;9.90;46.50;;;;;;10267979;28;20932;-76
2023/11/17 10:04:22;;;;;;;3.63;2.17;;;9.90;46.20;;;;;;10271098;28;20346;-75
2023/11/17 10:09:28;;;;;;;2.40;2.20;;;10.00;45.80;;;;;;10266793;28;20232;-76
2023/11/17 10:14:35;;;;;;;2.30;2.20;;;10.10;46.00;;;;;;10267363;28;20231;-75
2023/11/17 10:19:41;;;;;;;2.93;2.47;;;10.20;46.00;;;;;;10268560;28;20232;-76
2023/11/17 10:24:46;;;;;;;2.30;2.10;;;10.40;46.20;;;;;;10271042;28;20232;-75
2023/11/17 10:29:50;;;;;;;4.23;3.40;;;10.50;45.60;;;;;;10267777;28;20338;-76
2023/11/17 10:35:13;;;;;;;3.03;2.77;;;10.60;45.00;;;;;;10274992;28;20580;-77
2023/11/17 10:40:25;;;;;;;3.30;3.10;;;10.60;44.30;;;;;;10279883;28;20239;-76
2023/11/17 10:45:28;;;;;;;5.13;2.73;;;10.70;44.20;;;;;;10281195;28;20224;-76
2023/11/17 10:50:32;;;;;;;4.23;3.43;;;10.60;44.00;;;;;;10282134;28;20231;-76
2023/11/17 10:55:36;;;;;;;4.23;3.03;;;10.60;44.20;;;;;;10274669;28;20238;-77
2023/11/17 11:00:40;;;;;;;3.27;3.07;;;10.70;44.30;;;;;;10271134;28;20223;-77
2023/11/17 11:05:44;;;;;;;3.57;3.27;;;10.70;44.30;;;;;;10279136;28;20684;-77
2023/11/17 11:10:54;;;;;;;3.70;3.40;;;10.70;44.30;;;;;;10277183;28;20238;-76
2023/11/17 11:16:05;;;;;;;4.03;3.70;;;10.70;43.70;;;;;;10274746;28;20775;-76
2023/11/17 11:21:10;;;;;;;3.90;3.60;;;10.80;43.30;;;;;;10274965;28;20227;-76
2023/11/17 11:26:15;;;;;;;3.57;3.27;;;10.80;43.40;;;;;;10277266;28;20600;-77
2023/11/17 11:31:20;;;;;;;3.37;3.17;;;10.80;43.40;;;;;;10272139;28;20223;-76
2023/11/17 11:36:24;;;;;;;4.83;4.00;;;10.80;43.30;;;;;;10273120;28;20227;-76
2023/11/17 11:41:29;;;;;;;4.00;3.70;;;10.80;43.70;;;;;;10265760;28;20230;-76
2023/11/17 11:46:32;;;;;;;3.83;3.53;;;10.80;43.60;;;;;;10275184;28;20224;-76
2023/11/17 11:51:45;;;;;;;4.00;3.70;;;10.90;43.80;;;;;;10281564;28;20306;-76
2023/11/17 11:56:50;;;;;;;4.17;3.77;;;11.00;42.90;;;;;;10278711;28;20223;-76
2023/11/17 12:01:56;;;;;;;3.83;3.53;;;11.10;43.00;;;;;;10284133;28;20231;-76
2023/11/17 12:07:00;;;;;;;3.60;3.30;;;11.10;43.10;;;;;;10272246;28;20228;-76
2023/11/17 12:12:06;;;;;;;5.03;3.53;;;11.20;43.30;;;;;;10277246;28;20235;-76
2023/11/17 12:17:11;;;;;;;4.30;3.90;;;11.20;42.40;;;;;;10281096;28;20836;-76
2023/11/17 12:22:15;;;;;;;4.00;3.63;;;11.20;42.80;;;;;;10276864;28;20235;-76
2023/11/17 12:27:21;;;;;;;3.40;3.10;;;11.30;43.20;;;;;;10282991;28;20253;-76
2023/11/17 12:32:24;;;;;;;3.40;3.20;;;11.30;43.30;;;;;;10286437;28;20238;-76
2023/11/17 12:37:31;;;;;;;4.20;3.47;;;11.30;42.60;;;;;;10275630;28;20806;-77
2023/11/17 12:42:35;;;;;;;3.63;3.33;;;11.40;42.60;;;;;;10280128;28;20239;-78
2023/11/17 12:47:39;;;;;;;3.50;3.20;;;11.40;42.90;;;;;;10272753;28;20262;-78
2023/11/17 12:52:57;;;;;;;3.60;3.30;;;11.40;43.00;;;;;;10276650;28;20290;-78
2023/11/17 12:58:05;;;;;;;3.30;3.10;;;11.30;42.80;;;;;;10263096;28;20219;-77
2023/11/17 13:03:09;;;;;;;3.23;3.03;;;11.30;42.80;;;;;;10274682;28;20240;-77
2023/11/17 13:08:13;;;;;;;4.57;3.00;;;11.30;43.10;;;;;;10272621;28;20737;-76
2023/11/17 13:13:18;;;;;;;3.67;2.50;;;11.20;42.80;;;;;;10262151;28;20223;-76
2023/11/17 13:18:21;;;;;;;3.20;2.90;;;11.10;42.60;;;;;;10266496;28;20247;-75
2023/11/17 13:23:27;;;;;;;3.20;2.90;;;11.10;43.00;;;;;;10271067;28;20287;-77
2023/11/17 13:28:38;;;;;;;3.50;3.17;;;11.10;43.00;;;;;;10265481;28;20259;-78
2023/11/17 13:33:42;;;;;;;3.30;3.00;;;11.00;42.80;;;;;;10266943;28;20251;-76
2023/11/17 13:38:59;;;;;;;3.37;3.13;;;11.00;43.00;;;;;;10269026;28;20234;-75
2023/11/17 13:44:05;;;;;;;4.40;3.60;;;11.00;43.20;;;;;;10268997;28;20224;-75
2023/11/17 13:49:27;;;;;;;4.03;3.73;;;10.90;43.20;;;;;;10266708;28;20346;-74
2023/11/17 13:54:31;;;;;;;3.60;3.37;;;10.90;43.20;;;;;;10266878;28;20239;-75
2023/11/17 13:59:37;;;;;;;3.40;3.10;;;10.80;43.30;;;;;;10266415;28;20831;-75
2023/11/17 14:04:41;;;;;;;3.40;3.10;;;10.70;43.20;;;;;;10261923;28;20231;-75
2023/11/17 14:09:45;;;;;;;3.10;2.90;;;10.70;43.20;;;;;;10263152;28;20227;-75
2023/11/17 14:14:50;;;;;;;2.97;2.77;;;10.70;43.30;;;;;;10257606;28;20232;-75
2023/11/17 14:19:57;;;;;;;2.93;2.73;;;10.60;43.20;;;;;;10261735;28;20228;-74
2023/11/17 14:25:01;;;;;;;2.60;2.40;;;10.60;43.20;;;;;;10262493;28;20711;-75
2023/11/17 14:30:07;;;;;;;2.43;2.30;;;10.60;43.40;;;;;;10263217;28;20726;-75
2023/11/17 14:35:11;;;;;;;2.90;2.70;;;10.60;43.40;;;;;;10263272;28;20254;-75
2023/11/17 14:40:17;;;;;;;2.77;2.57;;;10.60;43.20;;;;;;10258930;28;20228;-75
2023/11/17 14:45:25;;;;;;;2.70;2.50;;;10.50;43.20;;;;;;10257986;28;20307;-76
2023/11/17 14:50:28;;;;;;;2.80;2.60;;;10.40;43.40;;;;;;10264050;28;20240;-76
2023/11/17 14:55:33;;;;;;;2.50;2.40;;;10.40;43.60;;;;;;10263646;28;20234;-76
2023/11/17 15:00:41;;;;;;;3.10;2.90;;;10.40;43.70;;;;;;10259897;28;20351;-75
2023/11/17 15:05:45;;;;;;;3.40;3.20;;;10.30;43.80;;;;;;10263351;28;20228;-75
2023/11/17 15:10:48;;;;;;;3.03;2.83;;;10.30;43.70;;;;;;10261478;28;20234;-75
2023/11/17 15:15:54;;;;;;;2.70;2.50;;;10.30;43.80;;;;;;10260768;28;20234;-76
2023/11/17 15:20:57;;;;;;;3.10;2.90;;;10.30;43.70;;;;;;10258316;28;20238;-76
2023/11/17 15:26:01;;;;;;;3.47;3.17;;;10.30;43.60;;;;;;10255883;28;20223;-76
2023/11/17 15:31:10;;;;;;;3.93;3.50;;;10.30;43.70;;;;;;10259741;28;20235;-75
2023/11/17 15:36:14;;;;;;;3.17;2.90;;;10.30;43.70;;;;;;10261022;28;20227;-75
2023/11/17 15:41:20;;;;;;;2.90;2.70;;;10.30;43.30;;;;;;10263292;28;20231;-76
2023/11/17 15:46:26;;;;;;;3.80;3.50;;;10.20;43.30;;;;;;10255509;28;22446;-75
2023/11/17 15:51:30;;;;;;;3.33;3.03;;;10.30;43.50;;;;;;10261339;28;20587;-75
2023/11/17 15:56:33;;;;;;;3.13;2.90;;;10.20;43.50;;;;;;10264558;28;20241;-75
2023/11/17 16:01:40;;;;;;;3.17;2.60;;;10.20;43.60;;;;;;10262530;28;20305;-75
2023/11/17 16:06:46;;;;;;;3.33;3.13;;;10.20;43.70;;;;;;10259905;28;20232;-75
2023/11/17 16:11:51;;;;;;;3.90;3.60;;;10.20;43.70;;;;;;10263885;28;20596;-75
2023/11/17 16:16:57;;;;;;;3.87;3.47;;;10.30;43.60;;;;;;10258080;28;20325;-75
2023/11/17 16:22:00;;;;;;;3.17;2.87;;;10.30;43.40;;;;;;10257742;28;20243;-75
2023/11/17 16:27:03;;;;;;;3.27;3.07;;;10.30;43.30;;;;;;10258483;28;20238;-75
2023/11/17 16:32:09;;;;;;;3.63;3.33;;;10.30;43.30;;;;;;10266375;28;20228;-75
2023/11/17 16:37:12;;;;;;;3.43;3.13;;;10.30;43.20;;;;;;10260891;28;20231;-75
2023/11/17 16:42:16;;;;;;;3.17;2.97;;;10.30;43.20;;;;;;10259985;28;20236;-75
2023/11/17 16:47:20;;;;;;;3.83;3.53;;;10.30;43.30;;;;;;10263369;28;20224;-75
2023/11/17 16:52:24;;;;;;;3.87;3.57;;;10.30;43.40;;;;;;10270174;28;20361;-75
2023/11/17 16:57:27;;;;;;;4.00;3.70;;;10.30;43.30;;;;;;10270460;28;20323;-74
2023/11/17 17:02:32;;;;;;;3.93;3.63;;;10.30;43.30;;;;;;10263702;28;20243;-74
2023/11/17 17:07:35;;;;;;;4.47;4.17;;;10.30;43.30;;;;;;10263583;28;20869;-76
2023/11/17 17:12:39;;;;;;;3.83;3.53;;;10.30;43.30;;;;;;10264385;28;20267;-77
2023/11/17 17:17:46;;;;;;;3.80;3.50;;;10.30;43.90;;;;;;10272173;28;20245;-76
2023/11/17 17:22:50;;;;;;;4.20;3.80;;;10.30;43.30;;;;;;10268101;28;20228;-78
2023/11/17 17:27:54;;;;;;;3.77;3.47;;;10.20;43.30;;;;;;10267352;28;20235;-76
2023/11/17 17:33:03;;;;;;;3.87;3.47;;;10.10;43.20;;;;;;10272786;28;20292;-74
2023/11/17 17:38:08;;;;;;;3.70;3.40;;;10.10;43.40;;;;;;10264616;28;20870;-75
2023/11/17 17:43:12;;;;;;;3.53;3.23;;;10.00;43.30;;;;;;10265773;28;20250;-75
2023/11/17 17:48:17;;;;;;;6.80;5.93;;;9.90;44.30;;;;;;10265543;28;20219;-78
2023/11/17 17:53:22;;;;;;;3.60;3.40;;;9.90;44.50;;;;;;10275710;28;20234;-76
2023/11/17 17:58:25;;;;;;;3.63;3.33;;;9.90;44.50;;;;;;10260912;28;20232;-76
2023/11/17 18:03:30;;;;;;;3.00;2.80;;;9.90;44.70;;;;;;10263504;28;20310;-75
2023/11/17 18:08:33;;;;;;;3.90;3.57;;;9.80;44.60;;;;;;10257914;28;20230;-76
2023/11/17 18:13:38;;;;;;;4.27;3.97;;;9.90;44.80;;;;;;10254455;28;20235;-77
2023/11/17 18:18:42;;;;;;;4.57;4.17;;;9.90;44.80;;;;;;10258518;28;20299;-77
2023/11/17 18:23:45;;;;;;;4.17;3.87;;;9.90;45.00;;;;;;10255546;28;20232;-76
2023/11/17 18:28:49;;;;;;;4.40;4.00;;;9.90;44.90;;;;;;10270800;28;20242;-77
2023/11/17 18:33:53;;;;;;;5.43;4.93;;;9.90;44.90;;;;;;10269550;28;20243;-77
2023/11/17 18:38:57;;;;;;;4.87;4.47;;;10.00;44.30;;;;;;10259624;28;20232;-77
2023/11/17 18:44:00;;;;;;;4.90;4.50;;;9.90;44.90;;;;;;10264176;28;20231;-77
2023/11/17 18:49:09;;;;;;;5.27;4.87;;;9.90;45.00;;;;;;10266318;28;20580;-76
2023/11/17 18:54:13;;;;;;;6.13;5.53;;;9.90;45.40;;;;;;10268808;28;20261;-76
2023/11/17 18:59:16;;;;;;;6.43;5.83;;;9.90;45.30;;;;;;10261666;28;20235;-76
2023/11/17 19:04:22;;;;;;;4.90;4.50;;;9.90;45.40;;;;;;10261183;28;20237;-76
2023/11/17 19:09:28;;;;;;;5.40;4.93;;;9.90;46.50;;;;;;10257868;28;20239;-76
2023/11/17 19:14:31;;;;;;;4.97;4.57;;;10.00;44.90;;;;;;10260552;28;20728;-77
2023/11/17 19:19:37;;;;;;;4.47;4.10;;;10.00;44.50;;;;;;10259131;28;20231;-76
2023/11/17 19:24:40;;;;;;;4.03;3.70;;;10.10;44.70;;;;;;10258324;28;20718;-76
2023/11/17 19:29:44;;;;;;;4.40;4.10;;;10.20;44.30;;;;;;10258254;28;20240;-76
2023/11/17 19:34:51;;;;;;;3.93;3.63;;;10.20;43.90;;;;;;10255641;28;20227;-77
2023/11/17 19:39:54;;;;;;;3.83;3.53;;;10.20;43.80;;;;;;10263313;28;20234;-77
2023/11/17 19:44:59;;;;;;;3.93;3.63;;;10.10;43.80;;;;;;10259333;28;20227;-76
2023/11/17 19:50:06;;;;;;;3.40;3.20;;;10.10;43.90;;;;;;10253509;28;20228;-76
2023/11/17 19:55:19;;;;;;;3.50;3.20;;;10.10;44.00;;;;;;10254559;28;20269;-76
2023/11/17 20:00:25;;;;;;;3.73;3.43;;;10.00;43.90;;;;;;10254234;28;20250;-77
2023/11/17 20:05:31;;;;;;;3.77;3.47;;;10.10;44.00;;;;;;10261018;28;20231;-76
2023/11/17 20:10:34;;;;;;;4.57;3.80;;;10.10;44.10;;;;;;10262381;28;20322;-76
2023/11/17 20:15:38;;;;;;;3.60;3.40;;;10.00;43.70;;;;;;10263461;28;20712;-77
2023/11/17 20:20:43;;;;;;;4.53;4.13;;;10.10;43.70;;;;;;10266362;28;20257;-77
2023/11/17 20:25:46;;;;;;;5.40;4.90;;;10.00;43.80;;;;;;10271552;28;20330;-76
2023/11/17 20:30:50;;;;;;;3.80;3.50;;;10.00;43.60;;;;;;10269794;28;20939;-77
2023/11/17 20:35:55;;;;;;;6.60;6.00;;;10.00;43.80;;;;;;10274045;28;20223;-78
2023/11/17 20:40:58;;;;;;;6.33;5.33;;;10.00;44.10;;;;;;10270050;28;20235;-77
2023/11/17 20:46:03;;;;;;;6.30;5.70;;;10.00;44.00;;;;;;10243467;28;20255;-76
2023/11/17 20:51:08;;;;;;;5.63;5.07;;;10.00;44.10;;;;;;10243944;28;20319;-77
2023/11/17 20:56:12;;;;;;;8.93;8.03;;;10.00;44.20;;;;;;10260533;28;20743;-76
2023/11/17 21:01:17;;;;;;;6.13;5.63;;;10.00;44.00;;;;;;10260807;28;20231;-76
2023/11/17 21:06:22;;;;;;;4.67;4.27;;;10.00;43.90;;;;;;10262199;28;20780;-76
2023/11/17 21:11:27;;;;;;;4.30;4.00;;;10.00;44.00;;;;;;10249615;28;20237;-77
2023/11/17 21:16:30;;;;;;;4.10;3.80;;;10.00;44.30;;;;;;10282089;28;20235;-74
2023/11/17 21:21:36;;;;;;;4.23;3.80;;;9.90;45.00;;;;;;10286590;28;20330;-74
2023/11/17 21:26:39;;;;;;;3.77;3.47;;;10.00;44.50;;;;;;10276428;28;20226;-74
2023/11/17 21:31:42;;;;;;;4.57;4.17;;;9.90;45.30;;;;;;10284537;28;20318;-74
2023/11/17 21:36:47;;;;;;;4.17;3.87;;;9.90;45.40;;;;;;10294974;28;20247;-74
2023/11/17 21:41:50;;;;;;;3.73;3.47;;;9.90;45.70;;;;;;10286351;28;20310;-75
2023/11/17 21:46:55;;;;;;;4.33;4.03;;;9.90;45.40;;;;;;10295833;28;20317;-75
2023/11/17 21:51:59;;;;;;;4.43;4.03;;;9.90;45.50;;;;;;10294983;28;20227;-76
2023/11/17 21:57:03;;;;;;;4.27;3.97;;;9.90;45.60;;;;;;10276368;28;21010;-77
2023/11/17 22:02:07;;;;;;;4.27;3.80;;;9.90;45.40;;;;;;10282960;28;20247;-77
2023/11/17 22:07:12;;;;;;;4.20;3.90;;;9.90;45.60;;;;;;10278823;28;20240;-77
2023/11/17 22:12:15;;;;;;;4.60;4.30;;;9.90;45.50;;;;;;10281421;28;20236;-77
2023/11/17 22:17:18;;;;;;;4.47;4.17;;;9.90;45.50;;;;;;10277303;28;20230;-77
2023/11/17 22:22:24;;;;;;;4.60;4.30;;;9.80;45.50;;;;;;10282200;28;20290;-77
2023/11/17 22:27:28;;;;;;;4.53;4.23;;;9.70;45.80;;;;;;10288463;28;20319;-77
2023/11/17 22:32:31;;;;;;;5.30;4.90;;;9.70;46.00;;;;;;10285235;28;20829;-76
2023/11/17 22:37:35;;;;;;;4.67;4.37;;;9.70;45.90;;;;;;10279398;28;20235;-77
2023/11/17 22:42:40;;;;;;;4.97;4.67;;;9.70;46.00;;;;;;10278765;28;20250;-77
2023/11/17 22:47:44;;;;;;;5.20;4.80;;;9.70;46.00;;;;;;10284623;28;20239;-77
2023/11/17 22:52:50;;;;;;;5.23;4.83;;;9.70;46.10;;;;;;10286047;28;20238;-77
2023/11/17 22:57:57;;;;;;;5.10;4.70;;;9.70;46.20;;;;;;10282750;28;20749;-77
2023/11/17 23:03:02;;;;;;;5.50;4.77;;;9.70;46.00;;;;;;10283314;28;20314;-77
2023/11/17 23:08:09;;;;;;;4.67;4.30;;;9.70;46.00;;;;;;10284608;28;20226;-77
2023/11/17 23:13:13;;;;;;;4.93;4.53;;;9.70;46.10;;;;;;10280449;28;20230;-77
2023/11/17 23:18:19;;;;;;;5.23;4.83;;;9.70;45.90;;;;;;10277896;28;20228;-77
2023/11/17 23:23:23;;;;;;;4.67;4.27;;;9.70;45.90;;;;;;10269476;28;20251;-77
2023/11/17 23:28:27;;;;;;;5.40;5.00;;;9.70;46.30;;;;;;10276245;28;20358;-77
2023/11/17 23:33:30;;;;;;;4.40;4.10;;;9.70;46.20;;;;;;10281600;28;20232;-77
2023/11/17 23:38:35;;;;;;;4.87;4.47;;;9.80;46.20;;;;;;10275740;28;20262;-77
2023/11/17 23:43:39;;;;;;;5.60;5.10;;;9.80;46.40;;;;;;10270884;28;20259;-76
2023/11/17 23:48:42;;;;;;;5.63;5.13;;;9.80;46.10;;;;;;10267234;28;20330;-76
2023/11/17 23:53:47;;;;;;;5.53;5.03;;;9.80;46.10;;;;;;10278916;28;20307;-77
2023/11/17 23:58:51;;;;;;;6.00;5.50;;;9.70;46.30;;;;;;10281299;28;20223;-77
